Time;durP1;ratioP1;P1;durP2;ratioP2;P2;SDS_P1;SDS_P2;PMS_P1;PMS_P2;Temp;Humidity;BMP_temperature;BMP_pressure;BME280_temperature;BME280_humidity;BME280_pressure;Samples;Min_cycle;Max_cycle;Signal;HPM_P1;HPM_P2
2022/12/22 03:27:28;;;;;;;4.57;4.27;;;;;;;8.95;99.19;99296.56;5013434;28;20579;-77
2022/12/22 03:29:54;;;;;;;4.63;4.33;;;;;;;8.90;99.27;99293.22;5013351;28;20210;-76
2022/12/22 03:32:22;;;;;;;4.83;4.50;;;;;;;8.95;99.47;99292.19;5013840;28;20671;-76
2022/12/22 03:34:48;;;;;;;4.60;4.23;;;;;;;8.95;99.12;99302.59;5013544;28;20338;-76
2022/12/22 03:37:15;;;;;;;4.47;4.07;;;;;;;9.02;98.70;99299.81;5012595;28;20230;-76
2022/12/22 03:39:41;;;;;;;4.60;4.30;;;;;;;8.98;98.79;99303.41;5013640;28;20268;-76
2022/12/22 03:47:39;;;;;;;5.37;4.97;;;;;;;9.01;98.57;99308.53;5013581;28;20234;-76
2022/12/22 03:50:07;;;;;;;4.87;4.57;;;;;;;8.98;99.01;99299.06;5013120;28;20260;-76
2022/12/22 03:52:33;;;;;;;4.70;4.40;;;;;;;8.95;99.51;99279.19;5013059;28;20218;-76
2022/12/22 03:54:59;;;;;;;4.40;4.10;;;;;;;9.00;99.32;99276.47;5012974;28;20237;-76
2022/12/22 03:57:26;;;;;;;4.17;3.87;;;;;;;9.02;99.21;99281.59;5012914;28;20777;-76
2022/12/22 03:59:52;;;;;;;4.37;4.07;;;;;;;9.06;98.77;99280.63;5021482;28;20210;-76
2022/12/22 04:02:19;;;;;;;4.50;4.20;;;;;;;9.02;98.51;99281.59;5032895;28;20256;-76
2022/12/22 04:04:46;;;;;;;4.33;4.03;;;;;;;9.02;98.30;99271.19;5032339;28;20198;-76
2022/12/22 04:07:13;;;;;;;4.23;3.93;;;;;;;8.97;98.57;99281.75;5032973;28;20252;-76
2022/12/22 04:12:53;;;;;;;4.40;4.10;;;;;;;9.01;98.23;99283.34;5031840;28;20352;-76
2022/12/22 04:15:10;;;;;;;4.87;4.47;;;;;;;8.97;97.88;99294.75;5032616;28;20229;-76
2022/12/22 04:17:37;;;;;;;5.07;4.67;;;;;;;9.02;97.77;99277.25;5032906;28;20226;-76
2022/12/22 04:20:06;;;;;;;4.83;4.53;;;;;;;9.01;97.46;99287.72;5032314;28;20256;-77
2022/12/22 04:22:32;;;;;;;5.07;4.77;;;;;;;9.03;97.77;99286.75;5032630;28;20218;-76
2022/12/22 04:24:59;;;;;;;4.90;4.60;;;;;;;8.83;98.67;99269.16;5031956;28;20205;-77
2022/12/22 04:27:25;;;;;;;4.40;4.10;;;;;;;8.89;99.32;99253.34;5031925;28;20785;-76
2022/12/22 04:29:51;;;;;;;5.03;4.70;;;;;;;8.93;99.27;99241.94;5032760;28;20202;-76
2022/12/22 04:32:18;;;;;;;4.20;3.90;;;;;;;8.91;99.13;99233.34;5032518;28;20206;-77
2022/12/22 04:34:44;;;;;;;3.73;3.43;;;;;;;8.92;99.08;99229.00;5032625;28;20651;-76
2022/12/22 04:37:12;;;;;;;3.93;3.73;;;;;;;8.92;98.51;99242.84;5032455;28;20277;-77
2022/12/22 04:39:38;;;;;;;4.67;4.27;;;;;;;8.92;98.14;99260.22;5032380;28;20487;-76
2022/12/22 04:42:05;;;;;;;4.20;3.90;;;;;;;8.89;97.75;99257.72;5032238;28;20240;-76
2022/12/22 04:44:31;;;;;;;3.90;3.60;;;;;;;8.87;97.58;99262.97;5032873;28;20209;-76
2022/12/22 04:46:57;;;;;;;3.30;3.10;;;;;;;8.84;97.24;99270.88;5032877;28;20633;-76
2022/12/22 04:49:24;;;;;;;3.63;3.40;;;;;;;8.83;97.29;99266.56;5032822;28;20209;-76
2022/12/22 04:51:50;;;;;;;3.97;3.67;;;;;;;8.83;97.03;99269.16;5032206;28;20637;-76
2022/12/22 04:54:18;;;;;;;3.47;3.27;;;;;;;8.83;97.24;99270.91;5032473;28;20206;-76
2022/12/22 04:56:44;;;;;;;3.73;3.43;;;;;;;8.84;96.98;99254.38;5032223;28;20230;-76
2022/12/22 04:59:11;;;;;;;4.30;4.00;;;;;;;8.81;97.37;99257.09;5032400;28;20213;-76
2022/12/22 05:01:37;;;;;;;4.17;3.90;;;;;;;8.80;97.49;99243.25;5032497;28;20260;-76
2022/12/22 05:04:04;;;;;;;3.40;3.20;;;;;;;8.79;97.54;99238.09;5032702;28;20258;-77
2022/12/22 05:06:30;;;;;;;3.90;3.50;;;;;;;8.78;97.57;99229.44;5032796;28;20201;-77
2022/12/22 05:08:57;;;;;;;3.33;3.13;;;;;;;8.80;97.47;99218.97;5032886;28;20279;-77
2022/12/22 05:11:24;;;;;;;3.73;3.47;;;;;;;8.78;97.62;99215.56;5032204;28;20252;-76
2022/12/22 05:13:51;;;;;;;4.17;3.93;;;;;;;8.74;97.88;99199.19;5032005;28;20206;-77
2022/12/22 05:16:17;;;;;;;3.80;3.60;;;;;;;8.80;98.16;99193.81;5032536;28;20707;-76
2022/12/22 05:18:45;;;;;;;4.70;4.40;;;;;;;8.83;98.09;99183.28;5032895;28;20226;-77
2022/12/22 05:21:14;;;;;;;4.27;3.97;;;;;;;8.83;98.25;99179.84;5032137;28;20279;-77
2022/12/22 05:23:40;;;;;;;4.73;4.43;;;;;;;8.79;98.29;99176.47;5032803;28;20206;-77
2022/12/22 05:26:07;;;;;;;4.40;4.10;;;;;;;8.70;99.04;99156.81;5032142;28;20491;-76
2022/12/22 05:28:35;;;;;;;4.40;4.10;;;;;;;8.73;100.00;99128.09;5032589;28;20722;-77
2022/12/22 05:31:04;;;;;;;4.63;4.27;;;;;;;8.73;100.00;99114.25;5032817;28;20206;-77
2022/12/22 05:33:30;;;;;;;5.27;4.87;;;;;;;8.73;100.00;99115.09;5032935;28;20209;-76
2022/12/22 05:35:57;;;;;;;5.10;4.70;;;;;;;8.73;100.00;99106.44;5033320;28;20276;-77
2022/12/22 05:38:23;;;;;;;4.70;4.40;;;;;;;8.69;100.00;99087.47;5033294;28;20264;-77
2022/12/22 05:40:50;;;;;;;4.80;4.47;;;;;;;8.68;100.00;99074.50;5032293;28;20256;-77
2022/12/22 05:43:16;;;;;;;5.03;4.53;;;;;;;8.70;100.00;99070.09;5031844;28;20267;-76
2022/12/22 05:45:45;;;;;;;5.07;4.67;;;;;;;8.68;100.00;99059.78;5032116;28;20202;-76
2022/12/22 05:48:12;;;;;;;5.70;5.20;;;;;;;8.72;100.00;99060.50;5031825;28;20283;-76
2022/12/22 05:50:39;;;;;;;5.43;5.03;;;;;;;8.74;100.00;99059.56;5031996;28;20342;-76
2022/12/22 05:53:06;;;;;;;5.50;5.10;;;;;;;8.78;100.00;99046.44;5031839;28;20218;-76
2022/12/22 05:55:33;;;;;;;5.80;5.40;;;;;;;8.78;100.00;99054.25;5032718;28;20280;-76
2022/12/22 05:58:00;;;;;;;6.00;5.50;;;;;;;8.73;100.00;99046.59;5032744;28;20230;-76
2022/12/22 06:00:28;;;;;;;6.37;5.87;;;;;;;8.80;100.00;99042.91;5033421;28;20680;-76
2022/12/22 06:02:56;;;;;;;5.93;5.43;;;;;;;8.82;100.00;99043.69;5036504;28;20631;-77
2022/12/22 06:05:23;;;;;;;6.37;5.87;;;;;;;8.77;100.00;99037.78;5037305;28;20213;-77
2022/12/22 06:07:49;;;;;;;6.87;6.37;;;;;;;8.79;100.00;99029.94;5035398;28;20233;-77
2022/12/22 06:10:16;;;;;;;5.97;5.47;;;;;;;8.84;100.00;99026.28;5035605;28;20206;-77
2022/12/22 06:12:43;;;;;;;5.80;5.40;;;;;;;8.90;100.00;99025.19;5035211;28;20623;-76
2022/12/22 06:15:13;;;;;;;6.20;5.70;;;;;;;8.85;100.00;99032.34;5036127;28;20267;-77
2022/12/22 06:17:39;;;;;;;6.33;5.90;;;;;;;8.92;100.00;99029.47;5036270;28;20233;-77
2022/12/22 06:20:08;;;;;;;5.53;5.13;;;;;;;8.92;100.00;99034.66;5035468;28;20206;-76
2022/12/22 06:22:35;;;;;;;6.13;5.73;;;;;;;8.97;100.00;99036.25;5036022;28;20209;-76
2022/12/22 06:25:01;;;;;;;5.80;5.40;;;;;;;9.02;100.00;99035.19;5035683;28;20210;-76
2022/12/22 06:27:28;;;;;;;5.53;5.17;;;;;;;9.03;100.00;99015.22;5035683;28;20229;-77
2022/12/22 06:29:54;;;;;;;5.63;5.23;;;;;;;9.03;100.00;99017.81;5035100;28;20667;-76
2022/12/22 06:32:21;;;;;;;5.10;4.70;;;;;;;9.09;100.00;99020.19;5034776;28;20280;-76
2022/12/22 06:34:49;;;;;;;5.40;5.00;;;;;;;9.06;100.00;99028.97;5034314;28;20206;-76
2022/12/22 06:37:17;;;;;;;5.60;5.10;;;;;;;9.09;100.00;99031.47;5034240;28;20238;-76
2022/12/22 06:39:43;;;;;;;5.73;5.33;;;;;;;9.13;100.00;99037.41;5034151;28;20218;-76
2022/12/22 06:44:54;;;;;;;4.90;4.60;;;;;;;9.12;100.00;99046.13;5034152;28;20580;-76
2022/12/22 06:47:21;;;;;;;5.17;4.77;;;;;;;9.14;100.00;99042.56;5034161;28;20225;-76
2022/12/22 06:49:48;;;;;;;5.17;4.67;;;;;;;9.07;100.00;99042.84;5033920;28;20756;-76
2022/12/22 06:52:14;;;;;;;5.67;4.70;;;;;;;9.07;100.00;99038.47;5047482;23;20599;-79
2022/12/22 06:54:42;;;;;;;4.90;4.60;;;;;;;9.09;100.00;99008.03;5036521;28;20210;-80
2022/12/22 06:57:08;;;;;;;5.80;5.30;;;;;;;9.01;100.00;99009.22;5035939;28;20256;-80
2022/12/22 06:59:35;;;;;;;5.30;4.90;;;;;;;9.06;100.00;99009.91;5036379;28;20749;-81
2022/12/22 07:02:01;;;;;;;5.13;4.73;;;;;;;9.08;100.00;99019.38;5035921;28;20226;-79
2022/12/22 07:04:28;;;;;;;6.03;5.63;;;;;;;9.10;100.00;99027.97;5036153;28;20213;-79
2022/12/22 07:06:55;;;;;;;4.90;4.50;;;;;;;9.04;100.00;99041.19;5035873;28;20205;-80
2022/12/22 07:09:23;;;;;;;4.80;4.40;;;;;;;9.07;100.00;99035.03;5036324;28;20206;-80
2022/12/22 07:11:50;;;;;;;5.03;4.53;;;;;;;9.11;100.00;99036.63;5035402;28;20226;-80
2022/12/22 07:14:17;;;;;;;4.97;4.57;;;;;;;9.10;100.00;99048.78;5035571;28;20260;-80
2022/12/22 07:16:44;;;;;;;4.33;4.03;;;;;;;9.11;100.00;99050.47;5035722;28;20229;-79
2022/12/22 07:19:10;;;;;;;4.13;3.83;;;;;;;9.10;100.00;99048.78;5035840;28;20210;-80
2022/12/22 07:21:37;;;;;;;4.20;3.90;;;;;;;9.06;100.00;99049.81;5035783;28;20202;-80
2022/12/22 07:24:04;;;;;;;3.90;3.60;;;;;;;9.05;100.00;99052.44;5036099;28;20263;-80
2022/12/22 07:26:30;;;;;;;4.20;3.90;;;;;;;9.08;100.00;99048.00;5036039;28;20206;-80
2022/12/22 07:28:58;;;;;;;3.47;3.17;;;;;;;9.06;100.00;99047.19;5036068;28;20616;-80
2022/12/22 07:31:24;;;;;;;3.33;3.13;;;;;;;9.05;100.00;99044.66;5034918;28;20206;-79
2022/12/22 07:33:51;;;;;;;3.67;3.47;;;;;;;9.04;100.00;99030.78;5035391;28;20283;-80
2022/12/22 07:36:19;;;;;;;3.70;3.50;;;;;;;9.03;100.00;99028.22;5035460;28;20276;-80
2022/12/22 07:38:47;;;;;;;4.20;3.90;;;;;;;9.03;100.00;99018.66;5035186;28;20252;-80
2022/12/22 07:44:01;;;;;;;3.77;3.47;;;;;;;9.05;100.00;98984.78;5035930;28;20237;-80
2022/12/22 07:46:30;;;;;;;6.10;3.67;;;;;;;9.08;100.00;98982.09;5035582;28;20255;-80
2022/12/22 07:51:42;;;;;;;3.80;3.47;;;;;;;9.04;100.00;98981.34;5035341;28;20285;-80
2022/12/22 07:54:10;;;;;;;3.93;3.63;;;;;;;9.08;100.00;98969.06;5037292;28;20210;-79
2022/12/22 07:56:36;;;;;;;4.20;3.87;;;;;;;9.13;100.00;98960.16;5051270;28;20234;-80
2022/12/22 07:59:04;;;;;;;4.00;3.67;;;;;;;9.12;100.00;98965.44;5048176;28;20640;-80
2022/12/22 08:01:31;;;;;;;3.57;3.37;;;;;;;9.15;100.00;98966.16;5053453;28;20263;-78
2022/12/22 08:03:57;;;;;;;5.00;4.60;;;;;;;9.08;100.00;98962.09;5048958;28;20218;-79
2022/12/22 08:06:24;;;;;;;9.70;8.90;;;;;;;9.10;100.00;98955.09;5049408;28;20291;-80
2022/12/22 08:08:51;;;;;;;6.40;5.90;;;;;;;9.10;100.00;98952.47;5046303;28;20202;-80
2022/12/22 08:11:18;;;;;;;5.03;4.73;;;;;;;9.10;100.00;98949.03;5051846;28;20220;-80
2022/12/22 08:13:45;;;;;;;4.40;4.10;;;;;;;9.11;100.00;98954.16;5040803;28;20230;-80
2022/12/22 08:16:13;;;;;;;4.60;4.30;;;;;;;9.15;100.00;98949.69;5036061;28;20328;-80
2022/12/22 08:18:40;;;;;;;4.93;4.53;;;;;;;9.11;100.00;98955.91;5036492;28;20206;-80
2022/12/22 08:21:08;;;;;;;4.77;4.47;;;;;;;9.12;100.00;98958.47;5036262;28;20213;-80
2022/12/22 08:23:34;;;;;;;4.53;4.13;;;;;;;9.14;100.00;98966.22;5035880;28;20272;-80
2022/12/22 08:26:05;;;;;;;5.07;4.57;;;;;;;9.12;100.00;98971.50;5036439;28;20236;-80
2022/12/22 08:28:36;;;;;;;4.80;4.50;;;;;;;9.09;100.00;98965.53;5036480;28;20206;-80
2022/12/22 08:31:04;;;;;;;4.20;3.90;;;;;;;9.10;100.00;98955.09;5036194;28;20206;-78
2022/12/22 08:33:31;;;;;;;5.00;4.53;;;;;;;9.10;100.00;98952.47;5036573;28;20276;-80
2022/12/22 08:35:59;;;;;;;4.80;4.40;;;;;;;9.15;100.00;98953.13;5036527;28;20202;-80
2022/12/22 08:38:25;;;;;;;4.57;4.27;;;;;;;9.09;100.00;98957.72;5037021;28;20214;-80
2022/12/22 08:40:54;;;;;;;4.13;3.83;;;;;;;9.09;100.00;98947.31;5036170;28;20210;-80
2022/12/22 08:43:23;;;;;;;3.97;3.67;;;;;;;9.17;100.00;98947.88;5036094;28;20590;-80
2022/12/22 08:45:50;;;;;;;3.47;3.10;;;;;;;9.26;100.00;98962.31;5036164;28;20241;-80
2022/12/22 08:48:16;;;;;;;3.53;3.23;;;;;;;9.30;100.00;98969.13;5035821;28;20207;-80
2022/12/22 08:50:45;;;;;;;6.90;6.40;;;;;;;9.27;100.00;98971.81;5036048;28;20214;-81
2022/12/22 08:53:12;;;;;;;5.30;4.80;;;;;;;9.35;100.00;98972.38;5035448;28;20786;-80
2022/12/22 08:55:38;;;;;;;7.13;6.63;;;;;;;9.27;100.00;98980.47;5033275;28;20680;-80
2022/12/22 08:58:04;;;;;;;6.67;6.07;;;;;;;9.18;100.00;98969.53;5035909;28;20225;-80
2022/12/22 09:00:31;;;;;;;8.77;8.00;;;;;;;9.09;100.00;98968.97;5033950;28;20206;-80
2022/12/22 09:02:57;;;;;;;10.47;9.57;;;;;;;9.02;100.00;98959.72;5035333;28;20234;-80
2022/12/22 09:05:23;;;;;;;7.90;7.30;;;;;;;9.10;100.00;98955.09;5034137;28;20210;-80
2022/12/22 09:07:55;;;;;;;7.37;6.77;;;;;;;9.14;100.00;98951.47;5035351;28;20226;-80
2022/12/22 09:10:21;;;;;;;6.17;5.57;;;;;;;9.05;100.00;98953.53;5035465;28;20214;-81
2022/12/22 09:12:47;;;;;;;6.73;6.23;;;;;;;9.12;100.00;98942.00;5035117;28;20256;-80
2022/12/22 09:15:14;;;;;;;5.80;5.40;;;;;;;9.22;100.00;98943.38;5035660;28;20210;-80
2022/12/22 09:17:42;;;;;;;30.97;27.87;;;;;;;9.19;100.00;98948.66;5034527;28;20219;-80
2022/12/22 09:20:09;;;;;;;8.37;7.77;;;;;;;9.03;100.00;98937.97;5034648;28;20202;-80
2022/12/22 09:22:35;;;;;;;8.23;7.63;;;;;;;8.79;100.00;98925.88;5034581;28;20222;-79
2022/12/22 09:25:03;;;;;;;9.10;8.40;;;;;;;8.78;100.00;98899.03;5035423;28;20210;-78
2022/12/22 09:27:30;;;;;;;7.53;7.03;;;;;;;8.97;100.00;98903.53;5035216;28;20631;-80
2022/12/22 09:29:56;;;;;;;6.97;6.47;;;;;;;9.06;100.00;98903.19;5034857;28;20252;-79
2022/12/22 09:32:23;;;;;;;7.47;6.87;;;;;;;9.15;100.00;98919.28;5031255;28;20272;-79
2022/12/22 09:34:51;;;;;;;6.50;6.00;;;;;;;9.20;100.00;98923.50;5033504;28;20628;-78
2022/12/22 09:37:17;;;;;;;7.87;7.17;;;;;;;9.26;100.00;98929.31;5039615;28;20225;-79
2022/12/22 09:39:45;;;;;;;6.60;6.10;;;;;;;9.32;100.00;98946.47;5038808;28;20248;-78
2022/12/22 09:42:17;;;;;;;5.93;5.47;;;;;;;9.36;100.00;98958.47;5037657;28;20245;-80
2022/12/22 09:44:46;;;;;;;5.67;5.27;;;;;;;9.40;100.00;98967.03;5039183;28;20206;-80
2022/12/22 09:47:19;;;;;;;5.03;4.63;;;;;;;9.39;100.00;98976.56;5038411;28;20202;-81
2022/12/22 09:49:46;;;;;;;4.47;4.17;;;;;;;9.43;100.00;98988.56;5039118;28;20229;-80
2022/12/22 09:52:23;;;;;;;5.03;4.63;;;;;;;9.45;100.00;98997.16;5038129;28;20230;-80
2022/12/22 09:54:50;;;;;;;5.53;5.13;;;;;;;9.45;100.00;99024.97;5039705;28;20279;-79
2022/12/22 09:57:18;;;;;;;5.57;5.00;;;;;;;9.48;100.00;99024.88;5039600;28;20234;-80
2022/12/22 09:59:45;;;;;;;7.20;6.60;;;;;;;9.48;100.00;99036.13;5039681;28;20213;-79
2022/12/22 10:02:24;;;;;;;5.30;4.90;;;;;;;9.36;100.00;99047.00;5038724;28;20226;-80
2022/12/22 10:05:03;;;;;;;4.23;3.93;;;;;;;9.25;100.00;99030.91;5038918;28;20206;-79
2022/12/22 10:07:32;;;;;;;8.20;4.60;;;;;;;9.23;100.00;99035.31;5039390;28;20233;-79
2022/12/22 10:10:04;;;;;;;16.07;14.63;;;;;;;8.76;100.00;99002.28;5038571;28;20267;-79
2022/12/22 10:12:31;;;;;;;18.53;17.23;;;;;;;8.39;100.00;98974.06;5038488;28;20273;-79
2022/12/22 10:14:58;;;;;;;10.87;10.07;;;;;;;8.48;100.00;98950.34;5037824;28;20636;-80
2022/12/22 10:17:27;;;;;;;7.17;6.67;;;;;;;8.52;100.00;98957.13;5037781;28;20225;-80
2022/12/22 10:20:19;;;;;;;7.40;6.87;;;;;;;8.54;100.00;98955.34;5036836;28;20292;-79
2022/12/22 10:22:48;;;;;;;18.87;9.47;;;;;;;8.20;100.00;98953.00;5037375;28;20230;-78
2022/12/22 10:25:27;;;;;;;9.00;8.30;;;;;;;8.28;100.00;98951.00;5036718;28;20236;-79
2022/12/22 10:27:56;;;;;;;11.10;10.27;;;;;;;8.04;100.00;98947.47;5036455;28;20757;-80
2022/12/22 10:30:25;;;;;;;10.43;9.53;;;;;;;8.11;100.00;98938.56;5037237;28;20239;-81
2022/12/22 10:33:07;;;;;;;9.87;9.00;;;;;;;8.03;100.00;98951.81;5036881;28;20233;-80
2022/12/22 10:35:45;;;;;;;10.23;9.33;;;;;;;8.13;100.00;98948.00;5037181;28;20202;-80
2022/12/22 10:38:24;;;;;;;9.40;8.50;;;;;;;8.14;100.00;98949.69;5036800;28;20794;-78
2022/12/22 10:40:53;;;;;;;10.00;8.27;;;;;;;8.14;100.00;98949.69;5036357;28;20209;-80
2022/12/22 10:43:25;;;;;;;9.70;8.77;;;;;;;8.22;100.00;98959.00;5036563;28;20500;-80
2022/12/22 10:45:53;;;;;;;10.00;9.00;;;;;;;8.23;100.00;98964.16;5036281;28;20264;-79
2022/12/22 10:48:29;;;;;;;8.87;8.07;;;;;;;8.24;100.00;98976.25;5036552;28;20267;-80
2022/12/22 10:50:57;;;;;;;8.50;7.70;;;;;;;8.40;100.00;98978.34;5036328;28;20672;-79
2022/12/22 10:53:39;;;;;;;9.00;8.20;;;;;;;8.51;100.00;98984.91;5036939;28;20288;-80
2022/12/22 10:56:07;;;;;;;8.80;7.83;;;;;;;8.65;100.00;98986.19;5036939;28;20202;-79
2022/12/22 10:58:47;;;;;;;10.10;9.20;;;;;;;8.48;100.00;98994.56;5036496;28;20603;-80
2022/12/22 11:01:13;;;;;;;9.70;8.80;;;;;;;8.53;100.00;98998.72;5036166;28;20677;-80
2022/12/22 11:03:39;;;;;;;14.17;12.97;;;;;;;8.58;100.00;99011.53;5037001;28;20225;-80
2022/12/22 11:06:12;;;;;;;15.73;14.33;;;;;;;8.57;100.00;99019.41;5037077;28;20236;-81
2022/12/22 11:08:38;;;;;;;9.87;8.97;;;;;;;8.50;100.00;99006.63;5036967;28;20210;-80
2022/12/22 11:11:10;;;;;;;7.63;7.07;;;;;;;8.66;100.00;99011.28;5036283;28;20213;-79
2022/12/22 11:13:53;;;;;;;7.43;6.83;;;;;;;8.72;100.00;99022.34;5036401;28;20249;-81
2022/12/22 11:16:25;;;;;;;6.63;6.03;;;;;;;8.58;100.00;99034.94;5035617;28;20627;-80
2022/12/22 11:19:07;;;;;;;6.63;6.13;;;;;;;8.48;100.00;99039.63;5036544;28;20234;-80
2022/12/22 11:21:42;;;;;;;6.80;6.20;;;;;;;8.71;100.00;99045.81;5035438;28;20228;-80
2022/12/22 11:24:24;;;;;;;8.10;7.50;;;;;;;8.45;100.00;99046.69;5036177;28;20209;-81
2022/12/22 11:26:59;;;;;;;7.00;6.40;;;;;;;8.62;100.00;99048.72;5037008;28;20271;-80
2022/12/22 11:29:47;;;;;;;9.00;8.20;;;;;;;8.43;100.00;99058.88;5038780;28;20209;-80
2022/12/22 11:32:29;;;;;;;8.20;7.50;;;;;;;8.35;100.00;99057.34;5036984;28;20766;-82
2022/12/22 11:35:04;;;;;;;8.40;7.60;;;;;;;8.28;100.00;99066.22;5036288;28;20220;-79
2022/12/22 11:37:39;;;;;;;7.50;6.90;;;;;;;8.34;100.00;99059.97;5036336;28;20599;-78
2022/12/22 11:40:16;;;;;;;6.67;6.17;;;;;;;8.30;100.00;99061.81;5036288;28;20232;-78
2022/12/22 11:42:57;;;;;;;6.60;6.07;;;;;;;8.29;100.00;99078.34;5034307;28;20601;-77
2022/12/22 11:45:46;;;;;;;5.53;5.13;;;;;;;8.32;100.00;99078.25;5035301;28;20657;-78
2022/12/22 11:48:31;;;;;;;6.00;5.50;;;;;;;8.41;100.00;99084.06;4323254;28;10000807;-79
2022/12/22 11:51:07;;;;;;;6.30;5.77;;;;;;;8.41;100.00;99094.47;5012802;28;20210;-80
2022/12/22 11:54:03;;;;;;;6.47;5.97;;;;;;;8.42;100.00;99091.81;5011365;28;20245;-79
2022/12/22 11:56:36;;;;;;;6.73;6.03;;;;;;;8.41;100.00;99107.47;5026929;28;20212;-79
2022/12/22 11:59:27;;;;;;;7.40;6.73;;;;;;;8.49;100.00;99116.72;5031221;28;20276;-79
2022/12/22 12:02:19;;;;;;;7.27;6.63;;;;;;;8.62;100.00;99127.63;5030703;28;20657;-78
2022/12/22 12:05:30;;;;;;;8.33;7.63;;;;;;;8.55;100.00;99137.34;5031744;28;20700;-79
2022/12/22 12:08:04;;;;;;;8.80;8.00;;;;;;;8.48;100.00;99142.78;5029260;28;20210;-78
2022/12/22 12:10:36;;;;;;;10.83;9.73;;;;;;;8.46;100.00;99141.97;5031321;28;20267;-78
2022/12/22 12:13:10;;;;;;;12.37;11.20;;;;;;;8.45;100.00;99142.91;5033371;28;20237;-79
2022/12/22 12:15:40;;;;;;;13.70;12.40;;;;;;;8.39;100.00;99151.69;5034340;28;20314;-79
2022/12/22 12:18:31;;;;;;;13.50;12.10;;;;;;;8.46;100.00;99157.59;5032621;28;20292;-79
2022/12/22 12:21:09;;;;;;;15.80;14.10;;;;;;;8.47;100.00;99162.75;5032739;28;20597;-79
2022/12/22 12:23:50;;;;;;;15.27;13.00;;;;;;;8.46;100.00;99162.78;5033302;28;20264;-78
2022/12/22 12:26:22;;;;;;;14.50;13.00;;;;;;;8.37;100.00;99169.09;5031997;28;20586;-78
2022/12/22 12:29:01;;;;;;;15.03;12.80;;;;;;;8.39;100.00;99159.50;5031620;28;20214;-78
2022/12/22 12:31:31;;;;;;;15.50;13.83;;;;;;;8.41;100.00;99152.53;5033194;28;20632;-78
2022/12/22 12:34:00;;;;;;;15.73;13.73;;;;;;;8.41;100.00;99152.53;5032632;28;20213;-78
2022/12/22 12:36:32;;;;;;;16.50;12.97;;;;;;;8.44;100.00;99144.63;5031832;28;20216;-79
2022/12/22 12:39:10;;;;;;;16.80;13.73;;;;;;;8.40;100.00;99150.78;5033688;28;20234;-79
2022/12/22 12:41:48;;;;;;;17.83;14.30;;;;;;;8.46;100.00;99154.97;5031697;28;20216;-78
2022/12/22 12:44:17;;;;;;;14.23;12.63;;;;;;;8.48;100.00;99166.19;5032261;28;20214;-78
2022/12/22 12:47:04;;;;;;;16.50;13.00;;;;;;;8.41;100.00;99177.66;5038563;28;20698;-79
2022/12/22 12:50:01;;;;;;;13.60;11.57;;;;;;;8.37;100.00;99186.47;5053757;28;20564;-80
2022/12/22 12:53:16;;;;;;;12.53;11.23;;;;;;;8.49;100.00;99194.75;5054670;28;20233;-79
2022/12/22 12:56:00;;;;;;;14.33;12.90;;;;;;;8.51;100.00;99202.50;5053930;28;20270;-79
2022/12/22 12:58:56;;;;;;;16.07;13.37;;;;;;;8.64;100.00;99211.66;5053365;28;20286;-80
2022/12/22 13:01:55;;;;;;;12.70;11.37;;;;;;;8.52;100.00;99220.69;5053389;28;20211;-80
2022/12/22 13:05:11;;;;;;;12.83;10.93;;;;;;;8.42;100.00;99226.19;5053281;28;20220;-81
2022/12/22 13:08:06;;;;;;;11.70;10.60;;;;;;;8.49;100.00;99227.72;5056899;28;20236;-80
2022/12/22 13:10:39;;;;;;;10.60;9.60;;;;;;;8.62;100.00;99230.78;5056810;28;20213;-78
2022/12/22 13:13:09;;;;;;;11.50;10.30;;;;;;;8.57;100.00;99248.28;5057750;28;20235;-79
2022/12/22 13:15:37;;;;;;;13.13;11.93;;;;;;;8.68;100.00;99243.59;5060347;28;20252;-79
2022/12/22 13:18:08;;;;;;;12.93;11.77;;;;;;;8.59;100.00;99249.94;5059816;28;20228;-79
2022/12/22 13:20:37;;;;;;;12.53;11.33;;;;;;;8.52;100.00;99257.09;5060257;28;20205;-79
2022/12/22 13:23:10;;;;;;;11.77;10.67;;;;;;;8.63;100.00;99258.50;5060484;28;20290;-80
2022/12/22 13:25:43;;;;;;;10.83;9.83;;;;;;;8.55;100.00;99270.00;5059927;28;20292;-79
2022/12/22 13:28:14;;;;;;;10.17;9.17;;;;;;;8.77;100.00;99282.34;5060373;28;20286;-79
2022/12/22 13:30:46;;;;;;;10.03;9.13;;;;;;;8.88;100.00;99287.22;5058900;28;20572;-79
2022/12/22 13:33:17;;;;;;;11.03;10.00;;;;;;;8.98;100.00;99293.00;5059090;28;20773;-79
2022/12/22 13:35:47;;;;;;;10.60;9.70;;;;;;;8.83;100.00;99315.16;5059617;28;20205;-78
2022/12/22 13:38:28;;;;;;;10.17;9.13;;;;;;;8.84;100.00;99322.03;4695290;28;10000550;-78
2022/12/22 13:40:54;;;;;;;10.43;9.53;;;;;;;8.86;100.00;99343.66;5033243;28;20644;-79
2022/12/22 13:43:21;;;;;;;10.13;9.17;;;;;;;8.64;100.00;99349.53;5036749;28;20236;-78
2022/12/22 13:45:49;;;;;;;10.73;9.67;;;;;;;8.66;100.00;99352.06;5037407;28;20206;-79
2022/12/22 13:48:20;;;;;;;10.83;9.47;;;;;;;8.59;100.00;99379.16;5036891;28;20626;-79
2022/12/22 13:50:51;;;;;;;11.93;9.50;;;;;;;8.52;100.00;99387.13;5034933;28;20236;-79
2022/12/22 13:53:28;;;;;;;10.17;9.27;;;;;;;8.35;100.00;99391.91;5035347;28;20234;-79
2022/12/22 13:55:54;;;;;;;11.40;10.37;;;;;;;8.16;100.00;99394.13;5035488;28;20236;-78
2022/12/22 13:58:27;;;;;;;10.20;9.27;;;;;;;8.13;100.00;99396.81;5035581;28;20226;-80
2022/12/22 14:01:01;;;;;;;10.77;9.77;;;;;;;8.19;100.00;99390.59;5034411;28;20220;-81
2022/12/22 14:03:27;;;;;;;11.20;10.10;;;;;;;8.19;100.00;99411.41;5035131;28;20256;-81
2022/12/22 14:05:55;;;;;;;12.60;10.20;;;;;;;8.31;100.00;99405.88;5035195;28;20260;-81
2022/12/22 14:08:22;;;;;;;10.50;9.33;;;;;;;8.23;100.00;99419.06;5035131;28;20205;-78
2022/12/22 14:10:49;;;;;;;9.23;8.37;;;;;;;8.38;100.00;99420.41;5035221;28;20349;-78
2022/12/22 14:13:19;;;;;;;10.60;9.60;;;;;;;8.29;100.00;99449.25;5036097;28;20226;-81
2022/12/22 14:15:46;;;;;;;9.20;8.30;;;;;;;8.24;100.00;99471.91;5034890;28;20279;-80
2022/12/22 14:18:16;;;;;;;9.63;8.73;;;;;;;8.21;100.00;99477.22;5035468;28;20283;-79
2022/12/22 14:20:46;;;;;;;9.57;8.77;;;;;;;8.11;100.00;99479.19;5034122;28;20206;-78
2022/12/22 14:23:19;;;;;;;9.53;8.63;;;;;;;8.12;100.00;99493.84;5033873;28;20288;-79
2022/12/22 14:25:50;;;;;;;9.50;8.70;;;;;;;7.85;100.00;99511.81;5035190;28;20271;-79
2022/12/22 14:28:20;;;;;;;10.57;9.57;;;;;;;7.90;100.00;99511.72;5035183;28;20284;-80
2022/12/22 14:30:50;;;;;;;14.53;11.17;;;;;;;7.71;100.00;99514.72;5034998;28;20685;-79
2022/12/22 14:33:26;;;;;;;14.60;13.20;;;;;;;7.56;100.00;99502.06;5035802;28;20854;-79
2022/12/22 14:36:04;;;;;;;15.43;11.47;;;;;;;7.55;100.00;99502.94;5036069;28;20205;-80
2022/12/22 14:38:39;;;;;;;21.20;19.03;;;;;;;7.53;100.00;99496.94;5035602;28;20235;-78
2022/12/22 14:41:39;;;;;;;16.70;14.67;;;;;;;7.62;100.00;99496.75;5035917;28;20667;-79
2022/12/22 14:43:58;;;;;;;10.93;9.83;;;;;;;7.45;100.00;99510.09;5037488;28;20239;-80
2022/12/22 14:46:24;;;;;;;9.30;8.50;;;;;;;7.63;100.00;99500.19;5036221;28;20212;-78
2022/12/22 14:48:51;;;;;;;10.37;9.30;;;;;;;7.53;100.00;99505.59;5037570;28;20240;-79
2022/12/22 14:51:18;;;;;;;9.10;8.30;;;;;;;7.54;100.00;99509.88;5036332;28;20206;-79
2022/12/22 14:53:50;;;;;;;9.67;8.70;;;;;;;7.49;100.00;99519.53;5036776;28;20238;-78
2022/12/22 14:56:17;;;;;;;10.80;9.43;;;;;;;7.42;100.00;99519.69;5036280;28;20263;-80
2022/12/22 14:58:45;;;;;;;7.60;6.87;;;;;;;7.48;100.00;99535.16;5036227;28;20230;-80
2022/12/22 15:01:15;;;;;;;10.23;9.27;;;;;;;7.28;100.00;99530.38;5035285;28;20201;-79
2022/12/22 15:03:43;;;;;;;8.67;7.87;;;;;;;7.44;100.00;99518.78;5035331;28;20284;-79
2022/12/22 15:06:33;;;;;;;12.83;11.73;;;;;;;7.40;100.00;99550.88;5034722;28;20326;-79
2022/12/22 15:09:21;;;;;;;7.17;6.53;;;;;;;7.53;100.00;99562.72;5034934;28;20194;-79
2022/12/22 15:11:50;;;;;;;8.70;7.80;;;;;;;7.41;99.24;99612.28;5033149;28;20222;-79
2022/12/22 15:14:20;;;;;;;8.33;7.43;;;;;;;7.45;99.71;99602.69;5036141;28;20205;-79
2022/12/22 15:16:47;;;;;;;8.40;7.70;;;;;;;7.25;100.00;99595.31;5033243;28;20263;-78
2022/12/22 15:19:21;;;;;;;9.10;8.03;;;;;;;7.14;100.00;99590.31;5033270;28;20608;-79
2022/12/22 15:21:47;;;;;;;8.83;8.13;;;;;;;7.09;100.00;99580.00;5035525;28;21073;-79
2022/12/22 15:24:16;;;;;;;10.03;9.03;;;;;;;7.13;100.00;99575.63;5036480;28;20232;-79
2022/12/22 15:26:44;;;;;;;9.03;8.17;;;;;;;7.13;100.00;99586.00;5036115;28;20202;-79
2022/12/22 15:29:11;;;;;;;7.30;6.67;;;;;;;7.20;100.00;99589.34;5035993;28;20627;-78
2022/12/22 15:31:38;;;;;;;6.77;6.13;;;;;;;7.26;98.88;99615.19;5035587;28;20201;-78